Time;durP1;ratioP1;P1;durP2;ratioP2;P2;SDS_P1;SDS_P2;PMS_P1;PMS_P2;Temp;Humidity;BMP_temperature;BMP_pressure;BME280_temperature;BME280_humidity;BME280_pressure;Samples;Min_cycle;Max_cycle;Signal;HPM_P1;HPM_P2
2021/05/30 00:00:47;;;;;;;8.50;7.70;;;15.80;59.10;;;;;;5073502;28;20451;-65
2021/05/30 00:03:14;;;;;;;9.80;7.43;;;15.70;59.00;;;;;;5073401;28;20452;-65
2021/05/30 00:05:40;;;;;;;7.60;6.90;;;15.70;59.00;;;;;;5073207;28;20440;-65
2021/05/30 00:08:07;;;;;;;7.93;7.07;;;15.70;59.00;;;;;;5073336;28;20464;-65
2021/05/30 00:10:34;;;;;;;7.77;7.03;;;15.70;59.10;;;;;;5073407;28;20444;-65
2021/05/30 00:13:00;;;;;;;7.30;6.60;;;15.60;59.10;;;;;;5073332;28;20494;-65
2021/05/30 00:15:26;;;;;;;7.83;5.90;;;15.50;58.80;;;;;;5073032;28;20538;-65
2021/05/30 00:17:53;;;;;;;5.97;5.47;;;15.40;58.90;;;;;;5073345;28;20461;-65
2021/05/30 00:20:19;;;;;;;6.30;5.70;;;15.40;58.90;;;;;;5073346;28;20444;-65
2021/05/30 00:22:46;;;;;;;5.93;5.43;;;15.30;58.80;;;;;;5073253;28;20447;-65
2021/05/30 00:25:14;;;;;;;6.30;5.70;;;15.20;59.10;;;;;;5072908;28;20456;-65
2021/05/30 00:27:40;;;;;;;7.20;6.50;;;15.10;59.40;;;;;;5073182;28;20868;-65
2021/05/30 00:30:07;;;;;;;7.60;6.90;;;15.10;59.60;;;;;;5073240;28;20440;-65
2021/05/30 00:32:34;;;;;;;7.13;6.33;;;15.00;59.60;;;;;;5073182;28;20445;-65
2021/05/30 00:35:00;;;;;;;6.83;6.13;;;15.00;59.80;;;;;;5072792;28;20805;-65
2021/05/30 00:37:26;;;;;;;8.80;7.67;;;14.90;59.80;;;;;;5073063;28;20464;-65
2021/05/30 00:39:52;;;;;;;7.03;6.43;;;14.90;60.20;;;;;;5073144;28;20447;-65
2021/05/30 00:42:19;;;;;;;7.60;6.90;;;14.80;60.20;;;;;;5073090;28;20456;-65
2021/05/30 00:44:46;;;;;;;6.90;6.20;;;14.80;60.60;;;;;;5073035;28;20444;-65
2021/05/30 00:47:12;;;;;;;7.80;7.10;;;14.80;60.90;;;;;;5072922;28;20460;-65
2021/05/30 00:49:38;;;;;;;7.47;6.87;;;14.70;60.70;;;;;;5073018;28;20452;-65
2021/05/30 00:52:06;;;;;;;7.57;6.90;;;14.70;60.90;;;;;;5073258;28;20456;-65
2021/05/30 00:54:33;;;;;;;8.47;7.67;;;14.60;60.90;;;;;;5072848;28;20472;-65
2021/05/30 00:56:59;;;;;;;8.03;7.30;;;14.70;61.40;;;;;;5072842;28;20469;-65
2021/05/30 00:59:26;;;;;;;7.83;7.13;;;14.60;61.10;;;;;;5072982;28;20464;-65
2021/05/30 01:01:52;;;;;;;8.60;7.80;;;14.60;61.50;;;;;;5075826;28;20448;-65
2021/05/30 01:04:19;;;;;;;9.23;7.90;;;14.60;61.90;;;;;;5076641;28;20448;-65
2021/05/30 01:06:45;;;;;;;8.30;7.47;;;14.50;61.70;;;;;;5076466;28;20492;-65
2021/05/30 01:09:11;;;;;;;8.53;7.73;;;14.50;61.90;;;;;;5076520;28;20537;-65
2021/05/30 01:11:38;;;;;;;9.30;8.40;;;14.40;61.80;;;;;;5076452;28;20489;-65
2021/05/30 01:14:08;;;;;;;9.07;7.97;;;14.40;62.00;;;;;;5076322;28;20487;-65
2021/05/30 01:16:35;;;;;;;8.90;8.00;;;14.40;62.20;;;;;;5076042;28;20524;-65
2021/05/30 01:19:05;;;;;;;10.67;7.73;;;14.40;62.30;;;;;;5076346;28;20448;-65
2021/05/30 01:21:31;;;;;;;10.97;8.33;;;14.30;62.30;;;;;;5076055;28;20441;-65
2021/05/30 01:23:58;;;;;;;9.77;8.77;;;14.30;62.80;;;;;;5076231;28;20447;-65
2021/05/30 01:26:26;;;;;;;7.90;7.20;;;14.30;63.10;;;;;;5076087;28;20464;-65
2021/05/30 01:28:53;;;;;;;8.60;7.90;;;14.20;63.00;;;;;;5076181;28;20543;-65
2021/05/30 01:31:20;;;;;;;9.63;8.63;;;14.20;63.00;;;;;;5076123;28;20490;-65
2021/05/30 01:33:46;;;;;;;9.50;8.60;;;14.20;62.90;;;;;;5076263;28;20444;-65
2021/05/30 01:36:13;;;;;;;10.00;9.03;;;14.20;63.10;;;;;;5075968;28;20444;-65
2021/05/30 01:38:40;;;;;;;9.47;8.47;;;14.10;63.20;;;;;;5076043;28;20447;-65
2021/05/30 01:41:07;;;;;;;9.13;8.20;;;14.10;63.10;;;;;;5075884;28;20931;-65
2021/05/30 01:43:34;;;;;;;9.70;8.80;;;14.10;63.20;;;;;;5075918;28;20860;-65
2021/05/30 01:46:01;;;;;;;10.90;8.90;;;14.10;63.20;;;;;;5075557;28;20490;-65
2021/05/30 01:48:28;;;;;;;8.43;7.57;;;14.10;63.20;;;;;;5075818;28;20444;-65
2021/05/30 01:50:54;;;;;;;7.83;7.03;;;14.00;63.10;;;;;;5075781;28;20448;-65
2021/05/30 01:53:33;;;;;;;8.20;7.50;;;14.00;63.00;;;;;;5075760;28;20433;-65
2021/05/30 01:58:45;;;;;;;8.30;7.50;;;13.90;63.00;;;;;;5075740;28;20819;-65
2021/05/30 02:01:13;;;;;;;9.00;7.80;;;13.80;62.60;;;;;;5075208;28;20939;-65
2021/05/30 02:03:42;;;;;;;9.30;8.33;;;13.80;62.60;;;;;;5075554;28;20566;-65
2021/05/30 02:06:08;;;;;;;8.17;7.43;;;13.80;63.00;;;;;;5075420;28;20441;-66
2021/05/30 02:08:39;;;;;;;8.20;7.50;;;13.70;62.90;;;;;;5075489;28;20546;-65
2021/05/30 02:11:08;;;;;;;8.43;7.63;;;13.70;63.00;;;;;;5075112;28;20899;-65
2021/05/30 02:13:35;;;;;;;9.60;8.33;;;13.70;63.20;;;;;;5075398;28;20441;-65
2021/05/30 02:16:03;;;;;;;9.30;7.77;;;13.60;63.10;;;;;;5075088;28;20480;-65
2021/05/30 02:18:29;;;;;;;8.50;7.70;;;13.50;63.30;;;;;;5075223;28;20860;-65
2021/05/30 02:20:55;;;;;;;8.77;7.90;;;13.50;63.40;;;;;;5075204;28;20451;-65
2021/05/30 02:23:22;;;;;;;9.10;8.30;;;13.50;63.40;;;;;;5075120;28;20437;-65
2021/05/30 02:25:49;;;;;;;9.53;8.63;;;13.50;63.60;;;;;;5075043;28;20490;-65
2021/05/30 02:28:15;;;;;;;8.97;8.17;;;13.50;63.80;;;;;;5075002;28;20468;-65
2021/05/30 02:30:41;;;;;;;9.53;8.67;;;13.40;64.00;;;;;;5074986;28;20468;-65
2021/05/30 02:33:08;;;;;;;9.40;8.37;;;13.40;64.30;;;;;;5074643;28;20970;-65
2021/05/30 02:35:34;;;;;;;9.50;8.60;;;13.40;64.40;;;;;;5074513;28;21044;-65
2021/05/30 02:38:01;;;;;;;9.63;8.73;;;13.40;64.40;;;;;;5074729;28;20543;-65
2021/05/30 02:40:27;;;;;;;8.87;8.10;;;13.40;64.60;;;;;;5074814;28;20440;-65
2021/05/30 02:42:53;;;;;;;9.07;8.27;;;13.40;64.60;;;;;;5074777;28;20445;-65
2021/05/30 02:45:19;;;;;;;9.87;8.97;;;13.40;64.70;;;;;;5074648;28;20444;-65
2021/05/30 02:47:47;;;;;;;8.70;7.80;;;13.30;64.60;;;;;;5074265;28;20464;-65
2021/05/30 02:50:14;;;;;;;10.23;8.80;;;13.30;64.70;;;;;;5074529;28;20974;-65
2021/05/30 02:52:40;;;;;;;8.17;7.43;;;13.30;64.80;;;;;;5074272;28;20938;-65
2021/05/30 02:55:08;;;;;;;10.43;9.33;;;13.30;64.80;;;;;;5074116;28;20472;-65
2021/05/30 02:57:34;;;;;;;10.93;8.50;;;13.30;65.60;;;;;;5074386;28;20464;-65
2021/05/30 03:00:00;;;;;;;11.23;8.00;;;13.20;65.00;;;;;;5074434;28;20857;-65
2021/05/30 03:02:26;;;;;;;9.77;8.87;;;13.20;65.30;;;;;;5074381;28;20506;-65
2021/05/30 03:04:52;;;;;;;9.23;8.20;;;13.20;65.20;;;;;;5074229;28;20441;-65
2021/05/30 03:07:20;;;;;;;9.67;8.57;;;13.20;65.20;;;;;;5074192;28;20472;-65
2021/05/30 03:09:46;;;;;;;9.77;8.87;;;13.20;65.30;;;;;;5074492;28;20451;-65
2021/05/30 03:12:12;;;;;;;9.60;8.70;;;13.10;65.10;;;;;;5074128;28;20494;-65
2021/05/30 03:14:38;;;;;;;10.60;9.50;;;13.10;65.40;;;;;;5073760;28;20480;-65
2021/05/30 03:17:04;;;;;;;11.27;10.27;;;13.10;65.40;;;;;;5073621;28;20484;-65
2021/05/30 03:19:31;;;;;;;10.70;9.60;;;13.10;65.60;;;;;;5073989;28;20444;-65
2021/05/30 03:21:57;;;;;;;10.70;9.70;;;13.10;65.60;;;;;;5074024;28;20496;-65
2021/05/30 03:24:24;;;;;;;10.10;9.10;;;13.00;65.60;;;;;;5073530;28;20445;-65
2021/05/30 03:26:51;;;;;;;8.60;7.80;;;13.00;65.70;;;;;;5074284;28;20476;-65
2021/05/30 03:29:17;;;;;;;8.37;7.57;;;13.00;65.40;;;;;;5073584;28;20488;-65
2021/05/30 03:31:43;;;;;;;8.10;7.37;;;13.00;65.20;;;;;;5073823;28;20449;-65
2021/05/30 03:34:10;;;;;;;7.57;6.77;;;12.90;65.00;;;;;;5073715;28;20490;-65
2021/05/30 03:36:36;;;;;;;9.63;8.13;;;12.90;65.20;;;;;;5073361;28;20839;-65
2021/05/30 03:39:06;;;;;;;7.70;7.00;;;12.90;64.80;;;;;;5073433;28;20450;-65
2021/05/30 03:41:36;;;;;;;8.27;7.57;;;12.80;64.90;;;;;;5073699;28;20449;-65
2021/05/30 03:44:05;;;;;;;8.30;7.40;;;12.80;64.90;;;;;;5073674;28;20437;-65
2021/05/30 03:46:31;;;;;;;7.27;6.67;;;12.80;65.40;;;;;;5073560;28;20469;-65
2021/05/30 03:48:58;;;;;;;7.90;7.20;;;12.70;65.40;;;;;;5073624;28;20444;-65
2021/05/30 03:51:24;;;;;;;7.47;6.77;;;12.70;65.40;;;;;;5073652;28;20494;-65
2021/05/30 03:53:51;;;;;;;7.57;6.87;;;12.70;65.50;;;;;;5073191;28;20452;-65
2021/05/30 03:56:17;;;;;;;7.37;6.67;;;12.70;65.80;;;;;;5073182;28;20947;-65
2021/05/30 03:58:44;;;;;;;7.57;6.87;;;12.60;65.50;;;;;;5073492;28;20440;-65
2021/05/30 04:01:11;;;;;;;8.00;7.20;;;12.60;65.60;;;;;;5073464;28;20453;-65
2021/05/30 04:03:37;;;;;;;8.83;7.30;;;12.60;65.80;;;;;;5073487;28;20424;-65
2021/05/30 04:06:03;;;;;;;8.60;7.80;;;12.60;66.10;;;;;;5073336;28;20440;-65
2021/05/30 04:08:30;;;;;;;7.63;6.93;;;12.50;66.20;;;;;;5073430;28;20452;-65
2021/05/30 04:10:56;;;;;;;8.40;7.60;;;12.60;66.70;;;;;;5073640;28;20849;-65
2021/05/30 04:13:22;;;;;;;9.00;8.10;;;12.50;66.90;;;;;;5073327;28;20451;-65
2021/05/30 04:15:50;;;;;;;8.37;7.57;;;12.50;67.10;;;;;;5073106;28;20554;-65
2021/05/30 04:18:16;;;;;;;10.47;8.53;;;12.50;67.10;;;;;;5073449;28;20891;-65
2021/05/30 04:20:42;;;;;;;10.70;9.60;;;12.50;67.20;;;;;;5073059;28;20950;-65
2021/05/30 04:23:08;;;;;;;8.97;8.03;;;12.60;67.60;;;;;;5073277;28;20448;-65
2021/05/30 04:25:34;;;;;;;9.20;8.30;;;12.60;67.90;;;;;;5073348;28;20428;-65
2021/05/30 04:28:01;;;;;;;8.40;7.57;;;12.60;68.20;;;;;;5073234;28;20471;-65
2021/05/30 04:30:27;;;;;;;8.20;7.40;;;12.60;68.40;;;;;;5073198;28;20440;-65
2021/05/30 04:32:54;;;;;;;8.27;7.50;;;12.60;68.20;;;;;;5073239;28;20467;-65
2021/05/30 04:35:20;;;;;;;6.97;6.37;;;12.60;68.40;;;;;;5073850;28;20503;-65
2021/05/30 04:37:46;;;;;;;8.13;7.37;;;12.60;68.80;;;;;;5077135;28;20464;-65
2021/05/30 04:40:13;;;;;;;8.77;7.87;;;12.60;69.00;;;;;;5077131;28;20444;-65
2021/05/30 04:42:39;;;;;;;8.07;7.27;;;12.60;69.20;;;;;;5077090;28;20448;-65
2021/05/30 04:45:07;;;;;;;9.33;8.43;;;12.60;69.60;;;;;;5076720;28;20930;-65
2021/05/30 04:47:34;;;;;;;8.27;7.50;;;12.70;69.90;;;;;;5076904;28;20461;-66
2021/05/30 04:50:01;;;;;;;10.03;9.03;;;12.70;70.00;;;;;;5076938;28;20451;-66
2021/05/30 04:52:27;;;;;;;10.13;9.03;;;12.70;70.20;;;;;;5076868;28;20448;-66
2021/05/30 04:54:53;;;;;;;10.53;9.43;;;12.80;71.00;;;;;;5076429;28;21002;-65
2021/05/30 04:57:20;;;;;;;10.40;9.30;;;12.80;71.30;;;;;;5076644;28;20461;-65
2021/05/30 04:59:46;;;;;;;10.30;9.30;;;12.80;71.40;;;;;;5077058;28;20440;-65
2021/05/30 05:02:12;;;;;;;9.70;8.80;;;12.80;71.60;;;;;;5076343;28;20963;-65
2021/05/30 05:04:38;;;;;;;12.33;9.37;;;12.90;72.10;;;;;;5076543;28;20506;-65
2021/05/30 05:07:05;;;;;;;11.60;10.40;;;12.90;72.40;;;;;;5076564;28;20464;-65
2021/05/30 05:09:32;;;;;;;12.13;10.83;;;12.90;72.90;;;;;;5076476;28;20440;-65
2021/05/30 05:11:58;;;;;;;13.03;11.73;;;13.00;73.40;;;;;;5076191;28;20950;-65
2021/05/30 05:14:24;;;;;;;13.77;12.33;;;13.00;73.80;;;;;;5076361;28;20484;-65
2021/05/30 05:16:50;;;;;;;14.27;12.77;;;13.00;74.20;;;;;;5076179;28;20473;-65
2021/05/30 05:19:17;;;;;;;24.10;15.70;;;13.10;74.80;;;;;;5076452;28;20475;-65
2021/05/30 05:21:43;;;;;;;16.50;14.97;;;13.20;75.70;;;;;;5076350;28;20629;-65
2021/05/30 05:24:10;;;;;;;17.60;15.83;;;13.30;76.00;;;;;;5076274;28;20552;-65
2021/05/30 05:26:37;;;;;;;16.33;14.77;;;13.40;77.30;;;;;;5076185;28;20471;-65
2021/05/30 05:29:03;;;;;;;16.43;14.83;;;13.40;76.90;;;;;;5076217;28;20452;-65
2021/05/30 05:31:30;;;;;;;16.23;14.53;;;13.50;77.20;;;;;;5076137;28;20445;-65
2021/05/30 05:33:56;;;;;;;20.30;17.63;;;13.60;77.30;;;;;;5076133;28;20494;-65
2021/05/30 05:36:22;;;;;;;18.27;16.33;;;13.70;77.80;;;;;;5075896;28;20822;-65
2021/05/30 05:38:49;;;;;;;17.53;15.77;;;13.70;78.00;;;;;;5076017;28;20444;-65
2021/05/30 05:41:16;;;;;;;20.33;16.60;;;13.80;78.10;;;;;;5075944;28;20445;-65
2021/05/30 05:43:42;;;;;;;18.00;15.93;;;13.90;78.20;;;;;;5075944;28;20449;-65
2021/05/30 05:46:08;;;;;;;17.30;15.50;;;14.00;78.60;;;;;;5075105;28;20943;-65
2021/05/30 05:48:34;;;;;;;20.43;18.23;;;14.10;78.70;;;;;;5075815;28;20441;-65
2021/05/30 05:51:01;;;;;;;20.33;18.20;;;14.10;78.90;;;;;;5075492;28;20445;-65
2021/05/30 05:53:27;;;;;;;19.30;17.30;;;14.20;78.90;;;;;;5075772;28;20818;-65
2021/05/30 05:55:53;;;;;;;19.03;17.07;;;14.40;78.70;;;;;;5075699;28;20880;-65
2021/05/30 05:58:21;;;;;;;20.83;18.67;;;14.40;78.60;;;;;;5075542;28;20471;-65
2021/05/30 06:00:47;;;;;;;16.83;15.13;;;14.50;78.90;;;;;;5075231;28;20784;-65
2021/05/30 06:03:14;;;;;;;17.83;15.97;;;14.60;78.40;;;;;;5075534;28;20448;-65
2021/05/30 06:05:40;;;;;;;18.57;16.73;;;14.70;78.20;;;;;;5075464;28;20440;-65
2021/05/30 06:08:06;;;;;;;19.43;16.60;;;14.80;77.60;;;;;;5075965;28;20469;-65
2021/05/30 06:10:33;;;;;;;16.20;14.50;;;14.90;77.70;;;;;;5075380;28;20467;-65
2021/05/30 06:13:02;;;;;;;18.57;16.60;;;15.00;77.00;;;;;;5075008;28;20510;-65
2021/05/30 06:15:29;;;;;;;15.10;13.60;;;15.20;77.10;;;;;;5074953;28;20481;-65
2021/05/30 06:17:57;;;;;;;14.83;13.43;;;15.30;76.40;;;;;;5074952;28;20994;-65
2021/05/30 06:20:25;;;;;;;12.40;11.20;;;15.50;73.80;;;;;;5075014;28;20943;-66
2021/05/30 06:22:52;;;;;;;11.73;10.50;;;15.60;72.30;;;;;;5075180;28;20501;-65
2021/05/30 06:25:18;;;;;;;12.63;11.43;;;15.80;70.80;;;;;;5075144;28;20464;-65
2021/05/30 06:27:45;;;;;;;10.83;9.73;;;15.90;69.80;;;;;;5074647;28;20813;-65
2021/05/30 06:30:12;;;;;;;10.10;9.10;;;16.10;69.30;;;;;;5075037;28;20510;-65
2021/05/30 06:32:39;;;;;;;10.60;9.50;;;16.20;68.70;;;;;;5074711;28;20482;-65
2021/05/30 06:35:07;;;;;;;12.57;11.40;;;16.40;67.80;;;;;;5074738;28;20480;-65
2021/05/30 06:37:34;;;;;;;12.23;11.00;;;16.50;67.20;;;;;;5074716;28;20471;-65
2021/05/30 06:40:00;;;;;;;11.80;10.50;;;16.70;67.20;;;;;;5075117;28;20452;-65
2021/05/30 06:42:26;;;;;;;12.40;11.17;;;16.80;66.50;;;;;;5074766;28;20445;-65
2021/05/30 06:44:52;;;;;;;9.60;8.60;;;17.00;65.80;;;;;;5074384;28;20490;-65
2021/05/30 06:47:18;;;;;;;11.30;10.20;;;17.20;64.90;;;;;;5075168;28;20472;-65
2021/05/30 06:49:46;;;;;;;10.00;9.00;;;17.30;64.90;;;;;;5074651;28;20444;-65
2021/05/30 06:52:12;;;;;;;8.80;8.00;;;17.40;64.40;;;;;;5074601;28;20811;-65
2021/05/30 06:54:38;;;;;;;8.47;7.67;;;17.60;62.90;;;;;;5074453;28;20480;-65
2021/05/30 06:57:05;;;;;;;10.10;9.00;;;17.80;61.60;;;;;;5074403;28;20826;-65
2021/05/30 06:59:31;;;;;;;7.60;6.90;;;18.00;60.60;;;;;;5073421;28;20445;-65
2021/05/30 07:01:58;;;;;;;10.23;9.00;;;18.20;59.90;;;;;;5074426;28;20536;-65
2021/05/30 07:04:26;;;;;;;11.07;10.07;;;18.40;59.40;;;;;;5074354;28;20785;-65
2021/05/30 07:06:53;;;;;;;10.70;8.37;;;18.50;57.70;;;;;;5074218;28;20480;-65
2021/05/30 07:09:20;;;;;;;8.80;8.00;;;18.60;56.90;;;;;;5074430;28;20451;-65
2021/05/30 07:11:46;;;;;;;8.03;7.33;;;18.80;57.00;;;;;;5074177;28;20531;-66
2021/05/30 07:14:12;;;;;;;8.20;7.40;;;19.00;56.70;;;;;;5074035;28;20457;-65
2021/05/30 07:16:39;;;;;;;6.90;6.30;;;19.20;56.30;;;;;;5073674;28;20473;-65
2021/05/30 07:19:05;;;;;;;8.97;7.63;;;19.40;56.00;;;;;;5074052;28;20531;-65
2021/05/30 07:21:32;;;;;;;8.27;7.37;;;19.60;55.60;;;;;;5073722;28;20935;-65
2021/05/30 07:23:59;;;;;;;8.87;8.07;;;19.80;55.50;;;;;;5073970;28;20519;-66
2021/05/30 07:26:25;;;;;;;8.10;7.00;;;19.90;55.20;;;;;;5073846;28;20457;-65
2021/05/30 07:28:52;;;;;;;8.70;7.80;;;20.10;54.70;;;;;;5073598;28;20474;-65
2021/05/30 07:31:19;;;;;;;9.90;7.47;;;20.30;54.40;;;;;;5073523;28;20970;-65
2021/05/30 07:33:46;;;;;;;8.27;7.57;;;20.50;54.20;;;;;;5073841;28;20444;-65
2021/05/30 07:36:12;;;;;;;9.13;8.23;;;20.70;53.90;;;;;;5073613;28;20853;-65
2021/05/30 07:38:39;;;;;;;9.47;8.20;;;20.90;53.80;;;;;;5073715;28;20494;-65
2021/05/30 07:41:06;;;;;;;8.80;7.93;;;21.00;53.10;;;;;;5073427;28;20916;-65
2021/05/30 07:43:32;;;;;;;8.67;7.90;;;21.10;53.00;;;;;;5073404;28;20436;-65
2021/05/30 07:45:58;;;;;;;8.17;7.20;;;21.20;52.30;;;;;;5073627;28;20451;-65
2021/05/30 07:48:24;;;;;;;8.47;7.63;;;21.40;52.00;;;;;;5073257;28;20816;-65
2021/05/30 07:50:51;;;;;;;11.63;7.60;;;21.60;51.90;;;;;;5073619;28;20445;-65
2021/05/30 07:53:17;;;;;;;8.10;7.37;;;21.70;51.70;;;;;;5073598;28;20859;-65
2021/05/30 07:55:44;;;;;;;8.00;7.30;;;21.90;51.40;;;;;;5073504;28;20506;-65
2021/05/30 07:58:11;;;;;;;8.30;7.50;;;22.00;50.90;;;;;;5073443;28;20487;-65
2021/05/30 08:00:38;;;;;;;7.60;6.90;;;22.20;51.00;;;;;;5073508;28;20499;-65
2021/05/30 08:03:04;;;;;;;7.10;6.53;;;22.30;49.80;;;;;;5073193;28;20523;-65
2021/05/30 08:05:31;;;;;;;8.10;7.30;;;22.50;49.60;;;;;;5073748;28;20448;-65
2021/05/30 08:07:57;;;;;;;10.30;8.80;;;22.60;48.80;;;;;;5073206;28;20518;-65
2021/05/30 08:10:26;;;;;;;7.47;6.80;;;22.70;48.90;;;;;;5073037;28;20441;-65
2021/05/30 08:12:52;;;;;;;8.00;7.20;;;22.80;48.50;;;;;;5073383;28;20444;-65
2021/05/30 08:15:20;;;;;;;7.60;6.77;;;22.90;48.50;;;;;;5072794;28;20465;-65
2021/05/30 08:17:47;;;;;;;6.80;6.20;;;23.10;48.40;;;;;;5073251;28;20473;-67
2021/05/30 08:20:14;;;;;;;6.50;6.00;;;23.20;47.90;;;;;;5073300;28;20448;-65
2021/05/30 08:22:41;;;;;;;7.57;6.87;;;23.40;47.40;;;;;;5073542;28;20445;-65
2021/05/30 08:25:08;;;;;;;7.30;6.30;;;23.50;47.10;;;;;;5073170;28;20429;-65
2021/05/30 08:27:35;;;;;;;6.73;6.20;;;23.70;46.90;;;;;;5073137;28;20472;-65
2021/05/30 08:30:01;;;;;;;6.33;5.70;;;23.90;46.40;;;;;;5073533;28;20441;-66
2021/05/30 08:32:28;;;;;;;7.43;6.63;;;24.10;46.10;;;;;;5072835;28;20440;-66
2021/05/30 08:34:54;;;;;;;8.27;6.97;;;24.30;45.70;;;;;;5072793;28;20476;-66
2021/05/30 08:37:21;;;;;;;5.73;5.20;;;24.40;44.70;;;;;;5073074;28;20464;-66
2021/05/30 08:39:48;;;;;;;8.23;7.47;;;24.60;44.70;;;;;;5073425;28;20437;-66
2021/05/30 08:42:14;;;;;;;7.23;6.57;;;24.80;44.50;;;;;;5073127;28;20457;-66
2021/05/30 08:44:40;;;;;;;7.10;6.40;;;25.10;44.60;;;;;;5073137;28;20829;-66
2021/05/30 08:47:06;;;;;;;6.67;6.17;;;25.30;43.90;;;;;;5072984;28;20465;-66
2021/05/30 08:49:34;;;;;;;10.97;9.93;;;25.60;43.20;;;;;;5073012;28;20445;-66
2021/05/30 08:52:00;;;;;;;7.30;6.67;;;25.70;40.70;;;;;;5072999;28;20444;-66
2021/05/30 08:54:31;;;;;;;6.63;6.13;;;25.70;40.20;;;;;;5072594;28;20862;-66
2021/05/30 08:56:57;;;;;;;5.43;5.00;;;25.90;41.10;;;;;;5072902;28;20468;-66
2021/05/30 08:59:28;;;;;;;6.63;5.70;;;26.10;40.50;;;;;;5072908;28;20433;-66
2021/05/30 09:01:55;;;;;;;6.13;5.50;;;26.30;39.40;;;;;;5072921;28;20440;-66
2021/05/30 09:04:30;;;;;;;5.87;5.37;;;26.60;39.40;;;;;;5072562;28;20448;-66
2021/05/30 09:06:57;;;;;;;5.10;4.60;;;26.80;39.20;;;;;;5072787;28;20537;-66
2021/05/30 09:09:23;;;;;;;6.03;5.43;;;27.00;39.10;;;;;;5072433;28;20451;-66
2021/05/30 09:11:51;;;;;;;6.20;5.60;;;27.20;38.80;;;;;;5072773;28;20514;-66
2021/05/30 09:14:20;;;;;;;5.30;4.80;;;27.40;37.60;;;;;;5072661;28;20440;-66
2021/05/30 09:16:58;;;;;;;7.33;6.73;;;27.60;35.60;;;;;;5072410;28;20567;-66
2021/05/30 09:19:43;;;;;;;8.37;7.63;;;27.80;36.20;;;;;;5072772;28;20433;-66
2021/05/30 09:22:36;;;;;;;9.03;8.13;;;28.00;37.10;;;;;;5074391;28;20436;-66
2021/05/30 09:25:18;;;;;;;7.20;6.50;;;28.10;37.50;;;;;;5075902;28;20810;-66
2021/05/30 09:27:47;;;;;;;5.20;4.73;;;28.30;36.50;;;;;;5076228;28;20468;-67
2021/05/30 09:30:24;;;;;;;4.13;3.80;;;28.40;36.00;;;;;;5076222;28;20455;-66
2021/05/30 09:32:56;;;;;;;4.27;3.80;;;28.70;34.70;;;;;;5076162;28;20833;-66
2021/05/30 09:35:23;;;;;;;4.60;4.30;;;28.90;34.00;;;;;;5076025;28;20847;-70
2021/05/30 09:38:00;;;;;;;5.73;5.33;;;29.20;33.60;;;;;;5075714;28;20979;-70
2021/05/30 09:40:38;;;;;;;5.10;4.63;;;29.30;32.80;;;;;;5076009;28;20428;-67
2021/05/30 09:43:07;;;;;;;6.30;4.80;;;29.50;33.60;;;;;;5075906;28;20444;-69
2021/05/30 09:45:34;;;;;;;4.10;3.80;;;29.70;33.40;;;;;;5076200;28;20429;-70
2021/05/30 09:48:02;;;;;;;4.37;4.07;;;29.80;33.00;;;;;;5075787;28;20465;-67
2021/05/30 09:50:32;;;;;;;4.67;4.27;;;30.10;32.60;;;;;;5075844;28;20455;-67
2021/05/30 09:53:00;;;;;;;3.80;3.50;;;30.30;32.30;;;;;;5075834;28;20432;-67
2021/05/30 09:55:28;;;;;;;3.97;3.67;;;30.50;31.80;;;;;;5075792;28;20512;-67
2021/05/30 09:58:11;;;;;;;5.10;3.23;;;30.80;28.90;;;;;;5075689;28;20468;-67
2021/05/30 10:00:38;;;;;;;4.17;3.87;;;30.80;29.30;;;;;;5075755;28;20437;-67
2021/05/30 10:03:05;;;;;;;3.00;2.37;;;31.00;29.00;;;;;;5075670;28;20436;-67
2021/05/30 10:05:32;;;;;;;4.00;2.87;;;31.10;28.20;;;;;;5075594;28;20432;-67
2021/05/30 10:07:59;;;;;;;2.30;2.17;;;31.40;26.20;;;;;;5075295;28;20835;-67
2021/05/30 10:10:27;;;;;;;2.87;2.67;;;31.60;25.30;;;;;;5075608;28;20831;-67
2021/05/30 10:12:53;;;;;;;3.03;2.83;;;31.90;25.60;;;;;;5075497;28;20538;-71
2021/05/30 10:15:20;;;;;;;3.10;2.80;;;32.20;26.00;;;;;;5074868;28;20475;-70
2021/05/30 10:17:47;;;;;;;3.10;2.90;;;32.50;25.70;;;;;;5075350;28;20467;-66
2021/05/30 10:20:19;;;;;;;3.40;3.10;;;32.90;25.70;;;;;;5075022;28;20433;-66
2021/05/30 10:23:02;;;;;;;3.30;3.00;;;33.30;25.20;;;;;;5075382;28;20428;-66
2021/05/30 10:25:29;;;;;;;2.87;2.37;;;33.70;24.90;;;;;;5075258;28;20432;-66
2021/05/30 10:28:12;;;;;;;3.10;2.90;;;34.20;24.80;;;;;;5074844;28;20463;-66
2021/05/30 10:30:40;;;;;;;2.97;2.67;;;34.60;24.10;;;;;;5073509;28;20451;-67
2021/05/30 10:33:12;;;;;;;2.70;2.50;;;35.00;23.90;;;;;;5073956;28;20429;-66
2021/05/30 10:35:40;;;;;;;2.57;2.37;;;35.40;23.00;;;;;;5074674;28;21019;-66
2021/05/30 10:38:07;;;;;;;3.93;2.73;;;35.20;22.00;;;;;;5075572;28;20472;-66
2021/05/30 10:40:36;;;;;;;3.00;2.80;;;35.50;23.30;;;;;;5074896;28;20451;-66
2021/05/30 10:43:20;;;;;;;2.83;2.63;;;35.60;19.50;;;;;;5075044;28;20487;-66
2021/05/30 10:46:06;;;;;;;3.10;2.60;;;35.90;21.20;;;;;;5074852;28;20459;-66
2021/05/30 10:48:33;;;;;;;3.40;3.10;;;36.60;21.40;;;;;;5074674;28;20458;-66
2021/05/30 10:51:09;;;;;;;4.07;2.77;;;37.10;21.30;;;;;;5074414;28;20914;-66
2021/05/30 10:53:41;;;;;;;2.80;2.60;;;37.60;21.30;;;;;;5074367;28;20248;-66
2021/05/30 10:56:23;;;;;;;3.93;2.30;;;38.20;20.30;;;;;;5074465;28;20214;-66
2021/05/30 10:59:32;;;;;;;3.28;2.95;;;38.80;19.40;;;;;;5074433;28;20202;-66
2021/05/30 11:02:01;;;;;;;2.80;2.47;;;39.00;16.70;;;;;;5074514;28;20196;-66
2021/05/30 11:04:38;;;;;;;2.50;2.25;;;39.20;18.00;;;;;;5074100;28;20582;-66
2021/05/30 11:07:24;;;;;;;2.50;1.98;;;39.60;18.40;;;;;;5074039;28;20591;-66
2021/05/30 11:10:10;;;;;;;2.22;2.10;;;40.00;18.10;;;;;;5074356;28;20201;-66
2021/05/30 11:12:55;;;;;;;2.13;1.92;;;40.40;18.20;;;;;;5074289;28;20190;-66
2021/05/30 11:15:39;;;;;;;2.53;2.33;;;40.80;17.60;;;;;;5073727;28;20241;-66
2021/05/30 11:18:06;;;;;;;2.53;2.33;;;41.20;16.40;;;;;;5074122;28;20222;-66
2021/05/30 11:20:46;;;;;;;2.88;2.08;;;41.50;16.50;;;;;;5074121;28;20209;-66
2021/05/30 11:23:15;;;;;;;2.20;2.00;;;41.70;16.40;;;;;;5073781;28;20239;-66
2021/05/30 11:25:45;;;;;;;2.42;2.20;;;41.90;16.70;;;;;;5074055;28;20182;-66
2021/05/30 11:28:13;;;;;;;2.70;2.42;;;42.20;16.20;;;;;;5073587;28;20726;-66
2021/05/30 11:30:42;;;;;;;2.22;2.08;;;42.50;16.10;;;;;;5073965;28;20214;-66
2021/05/30 11:33:10;;;;;;;1.98;1.77;;;42.80;15.70;;;;;;5074023;28;20202;-66
2021/05/30 11:35:37;;;;;;;1.83;1.73;;;43.00;15.50;;;;;;5073817;28;20226;-66
2021/05/30 11:38:04;;;;;;;2.53;2.33;;;43.00;15.50;;;;;;5073802;28;20226;-66
2021/05/30 11:40:34;;;;;;;2.20;2.10;;;43.10;15.30;;;;;;5073763;28;20194;-66
2021/05/30 11:43:36;;;;;;;2.47;2.28;;;43.10;15.30;;;;;;5073808;28;20218;-66
2021/05/30 11:46:11;;;;;;;2.80;2.45;;;42.70;15.70;;;;;;5073410;28;20198;-66
2021/05/30 11:48:37;;;;;;;2.45;2.25;;;42.30;16.30;;;;;;5073974;28;20190;-67
2021/05/30 11:51:04;;;;;;;2.53;2.33;;;42.30;16.20;;;;;;5073510;28;20186;-67
2021/05/30 11:53:33;;;;;;;2.83;2.63;;;42.40;16.00;;;;;;5073387;28;20198;-67
2021/05/30 11:56:00;;;;;;;2.67;2.47;;;42.70;15.80;;;;;;5073498;28;20226;-67
2021/05/30 11:58:27;;;;;;;2.47;2.28;;;43.00;15.90;;;;;;5073533;28;20229;-67
2021/05/30 12:00:55;;;;;;;2.00;1.90;;;43.20;13.70;;;;;;5073505;28;20186;-67
2021/05/30 12:03:21;;;;;;;5.15;2.00;;;43.40;15.00;;;;;;5073552;28;20190;-67
2021/05/30 12:05:47;;;;;;;2.70;2.50;;;43.60;15.30;;;;;;5073419;28;20201;-67
2021/05/30 12:08:18;;;;;;;2.42;2.22;;;43.90;15.40;;;;;;5073102;28;20761;-67
2021/05/30 12:10:55;;;;;;;5.18;2.75;;;44.30;14.80;;;;;;5073406;28;20201;-66
2021/05/30 12:13:27;;;;;;;2.67;2.47;;;44.60;14.10;;;;;;5073385;28;20190;-67
2021/05/30 12:15:53;;;;;;;2.40;2.20;;;44.60;12.40;;;;;;5072945;28;20751;-66
2021/05/30 12:18:21;;;;;;;3.50;2.60;;;44.50;12.60;;;;;;5073265;28;20229;-66
2021/05/30 12:20:47;;;;;;;2.47;2.38;;;44.40;12.80;;;;;;5073328;28;20205;-66
2021/05/30 12:23:16;;;;;;;3.65;2.33;;;44.50;13.50;;;;;;5073358;28;20243;-66
2021/05/30 12:25:53;;;;;;;2.60;2.33;;;44.30;13.70;;;;;;5073092;28;20201;-66
2021/05/30 12:28:20;;;;;;;2.25;2.08;;;44.30;13.10;;;;;;5072973;28;20319;-66
2021/05/30 12:30:52;;;;;;;3.00;2.10;;;44.10;13.50;;;;;;5072910;28;20244;-67
2021/05/30 12:33:19;;;;;;;2.30;2.10;;;44.30;14.60;;;;;;5073284;28;20186;-66
2021/05/30 12:35:52;;;;;;;2.25;2.05;;;44.70;14.20;;;;;;5073052;28;20237;-66
2021/05/30 12:38:20;;;;;;;2.92;2.00;;;45.10;13.90;;;;;;5073181;28;20319;-66
2021/05/30 12:40:47;;;;;;;2.70;2.50;;;45.50;13.80;;;;;;5073223;28;20190;-67
2021/05/30 12:43:14;;;;;;;2.47;2.28;;;45.80;13.40;;;;;;5073141;28;20627;-66
2021/05/30 12:46:02;;;;;;;3.05;2.38;;;46.20;13.20;;;;;;5073206;28;20603;-67
2021/05/30 12:48:38;;;;;;;2.90;2.65;;;46.80;13.00;;;;;;5073104;28;20221;-66
2021/05/30 12:51:13;;;;;;;5.13;2.40;;;46.90;11.70;;;;;;5073008;28;20288;-66